Events

Displaying 8401 - 8500 of 8520

Download data entry template

Text Pg Order within Page Date Location Chronological Order Creation date Updated datesort descending
Absalom, Absalom! 194 2 1834-06-03 to 1834-08-31 Downed Log in Absalom! in Absalom, Absalom! (Location) 69.00 view Thu, 2017-12-07 13:48 Thu, 2022-01-27 11:09
Absalom, Absalom! 194 3 1819-11-01 to 1820-02-28 Tidewater Virginia in Absalom, Absalom! (Location) 8.00 view Thu, 2017-12-07 14:01 Thu, 2022-01-27 11:09
Absalom, Absalom! 195 1 1819-11-02 to 1820-02-28 Tidewater Virginia in Absalom, Absalom! (Location) 9.00 view Thu, 2017-12-07 14:03 Thu, 2022-01-27 11:09
Absalom, Absalom! 196 1 1820-03-02 to 1820-12-31 Tidewater Virginia in Absalom, Absalom! (Location) 16.00 view Thu, 2017-12-07 14:12 Thu, 2022-01-27 11:10
Absalom, Absalom! 196 2 1834-06-03 to 1834-08-31 Downed Log in Absalom! in Absalom, Absalom! (Location) 70.00 view Thu, 2017-12-07 14:18 Thu, 2022-01-27 11:10
Absalom, Absalom! 197 1 1834-06-03 to 1834-08-31 Downed Log in Absalom! in Absalom, Absalom! (Location) 71.00 view Thu, 2017-12-07 14:22 Thu, 2022-01-27 11:10
Absalom, Absalom! 198 1 1834-06-03 to 1834-08-31 Downed Log in Absalom! in Absalom, Absalom! (Location) 72.00 view Thu, 2017-12-07 14:26 Thu, 2022-01-27 11:11
Absalom, Absalom! 198 2 1864-11-01 to 1864-11-30 Jefferson General Compson's|Mr. Compson's Office in Absalom, Absalom! (Location) 333.50 view Thu, 2017-12-07 14:29 Thu, 2022-01-27 11:11
Absalom, Absalom! 198 3 1826-01-10 to 1826-12-31 Haiti in Absalom, Absalom! (Location) 25.00 view Thu, 2017-12-07 14:39 Thu, 2022-01-27 11:11
Absalom, Absalom! 199 1 1823-01-01 to 1826-12-31 Haiti in Absalom, Absalom! (Location) 19.00 view Thu, 2017-12-07 14:43 Thu, 2022-01-27 11:12
Absalom, Absalom! 199 2 1910-01-13 Harvard University|Cambridge Area in Absalom, Absalom! (Location) 540.00 view Thu, 2017-12-07 14:46 Thu, 2022-01-27 11:13
Absalom, Absalom! 199 3 1864-11-01 to 1864-11-30 Jefferson General Compson's|Mr. Compson's Office in Absalom, Absalom! (Location) 333.60 view Thu, 2017-12-07 14:48 Thu, 2022-01-27 11:13
Absalom, Absalom! 199 4 1826-01-10 to 1826-12-31 Haiti in Absalom, Absalom! (Location) 26.00 view Thu, 2017-12-07 15:19 Thu, 2022-01-27 11:13
Absalom, Absalom! 199 6 1834-06-03 to 1834-08-31 Downed Log in Absalom! in Absalom, Absalom! (Location) 73.00 view Thu, 2017-12-07 15:33 Thu, 2022-01-27 11:14
Absalom, Absalom! 200 1 1826-01-10 to 1826-12-31 Haiti in Absalom, Absalom! (Location) 29.00 view Thu, 2017-12-07 15:42 Thu, 2022-01-27 11:14
Absalom, Absalom! 200 2 1834-06-03 to 1834-08-31 Downed Log in Absalom! in Absalom, Absalom! (Location) 74.00 view Thu, 2017-12-07 15:45 Thu, 2022-01-27 11:15
Absalom, Absalom! 201 1 1826-01-10 to 1826-12-31 Haiti in Absalom, Absalom! (Location) 28.00 view Thu, 2017-12-07 15:47 Thu, 2022-01-27 11:15
Absalom, Absalom! 201 2 1826-01-10 to 1826-12-31 Haiti in Absalom, Absalom! (Location) 24.50 view Thu, 2017-12-07 15:50 Thu, 2022-01-27 11:15
Absalom, Absalom! 201 3 1823-01-01 to 1825-12-31 Haiti in Absalom, Absalom! (Location) 20.00 view Thu, 2017-12-07 16:23 Thu, 2022-01-27 11:16
Absalom, Absalom! 202 1 1826-01-01 to 1826-12-31 Haiti in Absalom, Absalom! (Location) 21.00 view Thu, 2017-12-07 16:27 Thu, 2022-01-27 11:16
Absalom, Absalom! 203 1 1826-01-01 to 1826-12-31 Haiti in Absalom, Absalom! (Location) 22.00 view Thu, 2017-12-07 16:34 Thu, 2022-01-27 11:17
Absalom, Absalom! 203 2 1826-01-10 to 1826-12-31 Haiti in Absalom, Absalom! (Location) 24.70 view Thu, 2017-12-07 16:39 Thu, 2022-01-27 11:17
Absalom, Absalom! 203 3 1826-01-07 to 1826-12-31 Haiti in Absalom, Absalom! (Location) 23.00 view Thu, 2017-12-07 16:42 Thu, 2022-01-27 11:17
Absalom, Absalom! 203 4 1834-01-01 to 1855-12-31 Downed Log in Absalom! in Absalom, Absalom! (Location) 62.00 view Thu, 2017-12-07 16:53 Thu, 2022-01-27 11:18
Absalom, Absalom! 204 1 1826-01-07 to 1826-12-31 Haiti in Absalom, Absalom! (Location) 24.00 view Thu, 2017-12-07 16:56 Thu, 2022-01-27 11:18
Absalom, Absalom! 204 2 1826-01-10 to 1826-12-31 Haiti in Absalom, Absalom! (Location) 27.00 view Thu, 2017-12-07 17:00 Thu, 2022-01-27 11:19
Absalom, Absalom! 204 3 1826-01-18 to 1826-12-31 Haiti in Absalom, Absalom! (Location) 30.00 view Thu, 2017-12-07 17:03 Thu, 2022-01-27 11:19
Absalom, Absalom! 204 4 1834-06-03 to 1834-08-31 Downed Log in Absalom! in Absalom, Absalom! (Location) 75.00 view Thu, 2017-12-07 17:05 Thu, 2022-01-27 11:20
Absalom, Absalom! 204 5 1826-01-18 to 1826-12-31 Haiti in Absalom, Absalom! (Location) 31.00 view Thu, 2017-12-07 17:08 Thu, 2022-01-27 11:20
Absalom, Absalom! 205 1 1834-06-03 to 1834-08-31 Downed Log in Absalom! in Absalom, Absalom! (Location) 76.00 view Thu, 2017-12-07 17:10 Thu, 2022-01-27 11:21
Absalom, Absalom! 205 2 1826-01-19 to 1826-01-31 Haiti in Absalom, Absalom! (Location) 32.00 view Thu, 2017-12-07 17:12 Thu, 2022-01-27 11:21
Absalom, Absalom! 206 1 1910-01-13 Harvard University|Cambridge Area in Absalom, Absalom! (Location) 542.50 view Fri, 2017-12-08 11:06 Thu, 2022-01-27 11:22
Absalom, Absalom! 206 2 1834-06-04 to 1834-08-31 Tallahatchie River Bottom in Absalom, Absalom! (Location) 78.00 view Fri, 2017-12-08 11:09 Thu, 2022-01-27 11:23
Absalom, Absalom! 206 3 1835-01-01 to 1835-12-31 Jefferson General Compson's|Mr. Compson's Office in Absalom, Absalom! (Location) 82.00 view Fri, 2017-12-08 11:13 Thu, 2022-01-27 11:23
Absalom, Absalom! 208 2 1834-09-01 to 1845-12-31 Sutpen Plantation in Absalom, Absalom! (Location) 80.00 view Fri, 2017-12-08 11:23 Thu, 2022-01-27 11:23
Absalom, Absalom! 210 3 1839-01-01 to 1841-12-31 Sutpen Plantation in Absalom, Absalom! (Location) 113.00 view Fri, 2017-12-08 11:45 Thu, 2022-01-27 11:25
Absalom, Absalom! 211 1 1831-01-01 to 1831-12-31 Haiti in Absalom, Absalom! (Location) 38.00 view Fri, 2017-12-08 11:48 Thu, 2022-01-27 11:26
Absalom, Absalom! 211 2 1864-11-01 to 1864-12-31 Jefferson General Compson's|Mr. Compson's Office in Absalom, Absalom! (Location) 335.00 view Fri, 2017-12-08 11:54 Thu, 2022-01-27 11:26
Absalom, Absalom! 212 1 1827-01-01 to 1827-12-31 Haiti in Absalom, Absalom! (Location) 33.00 view Fri, 2017-12-08 11:57 Thu, 2022-01-27 11:27
Absalom, Absalom! 212 2 1831-01-01 to 1831-12-31 Haiti in Absalom, Absalom! (Location) 35.00 view Fri, 2017-12-08 12:05 Thu, 2022-01-27 11:27
Absalom, Absalom! 213 1 1864-11-01 to 1864-11-30 Jefferson General Compson's|Mr. Compson's Office in Absalom, Absalom! (Location) 336.00 view Fri, 2017-12-08 13:19 Thu, 2022-01-27 11:27
Absalom, Absalom! 213 4 1831-01-01 to 1831-12-31 Haiti in Absalom, Absalom! (Location) 37.00 view Fri, 2017-12-08 13:27 Thu, 2022-01-27 11:28
Absalom, Absalom! 215 1 1864-11-01 to 1864-12-25 Jefferson General Compson's|Mr. Compson's Office in Absalom, Absalom! (Location) 335.50 view Fri, 2017-12-08 13:40 Thu, 2022-01-27 11:28
Absalom, Absalom! 215 2 1859-12-25 to 1860-01-07 Sutpen Plantation in Absalom, Absalom! (Location) 185.00 view Fri, 2017-12-08 13:43 Thu, 2022-01-27 11:28
Absalom, Absalom! 214 1 1831-01-01 to 1841-12-31 Sutpen Plantation in Absalom, Absalom! (Location) 38.00 view Fri, 2017-12-08 13:29 Thu, 2022-01-27 11:29
Absalom, Absalom! 209 2 1835-01-01 to 1845-12-31 Sutpen Plantation in Absalom, Absalom! (Location) 84.00 view Fri, 2017-12-08 11:36 Thu, 2022-01-27 11:30
Absalom, Absalom! 216 1 1860-05-15 to 1860-06-10 New Orleans, Louisiana in Absalom, Absalom! (Location) 212.00 view Fri, 2017-12-08 13:50 Thu, 2022-01-27 11:31
Absalom, Absalom! 218 1 1864-11-01 to 1864-11-30 Jefferson General Compson's|Mr. Compson's Office in Absalom, Absalom! (Location) 333.30 view Fri, 2017-12-08 14:31 Thu, 2022-01-27 11:31
Absalom, Absalom! 221 1 1864-11-01 to 1864-11-30 Holston House in Absalom, Absalom! (Location) 338.00 view Fri, 2017-12-08 14:40 Thu, 2022-01-27 11:32
Absalom, Absalom! 221 2 1864-11-01 to 1864-11-30 Sutpen Plantation in Absalom, Absalom! (Location) 339.00 view Fri, 2017-12-08 14:43 Thu, 2022-01-27 11:32
Absalom, Absalom! 221 3 1865-04-01 to 1865-04-30 Carolina in the Civil War in Absalom, Absalom! (Location) 352.00 view Fri, 2017-12-08 14:48 Thu, 2022-01-27 11:32
Absalom, Absalom! 225 1 1866-07-01 to 1867-12-31 Sutpen Plantation in Absalom, Absalom! (Location) 407.00 view Fri, 2017-12-08 15:20 Thu, 2022-01-27 11:33
Absalom, Absalom! 234 2 1864-11-01 to 1864-11-30 Jefferson General Compson's|Mr. Compson's Office in Absalom, Absalom! (Location) 337.00 view Fri, 2017-12-08 16:50 Thu, 2022-01-27 11:34
Absalom, Absalom! 249 3 1910-01-14 Harvard University|Cambridge Area in Absalom, Absalom! (Location) 558.10 view Sun, 2017-12-10 08:42 Fri, 2022-01-28 10:01
Absalom, Absalom! 249 5 1859-08-03 to 1859-08-31 New Orleans, Louisiana in Absalom, Absalom! (Location) 166.00 view Sun, 2017-12-10 08:47 Fri, 2022-01-28 10:02
Absalom, Absalom! 249 4 1859-08-02 to 1859-08-31 New Orleans, Louisiana in Absalom, Absalom! (Location) 163.00 view Sun, 2017-12-10 08:45 Fri, 2022-01-28 10:03
Absalom, Absalom! 248 3 1859-08-02 to 1859-08-31 New Orleans, Louisiana in Absalom, Absalom! (Location) 162.00 view Sun, 2017-12-10 08:41 Fri, 2022-01-28 10:06
Absalom, Absalom! 249 2 1859-08-02 to 1859-08-31 New Orleans, Louisiana in Absalom, Absalom! (Location) 162.10 view Fri, 2022-01-28 10:08 Fri, 2022-01-28 10:08
Absalom, Absalom! 251 2 1910-01-14 Harvard University|Cambridge Area in Absalom, Absalom! (Location) 558.20 view Fri, 2022-01-28 10:28 Fri, 2022-01-28 10:28
Absalom, Absalom! 249 1 1910-01-14 Harvard University|Cambridge Area in Absalom, Absalom! (Location) 558.00 view Fri, 2022-01-28 09:56 Fri, 2022-01-28 10:29
Absalom, Absalom! 251 3 1859-08-02 to 1859-08-31 New Orleans, Louisiana in Absalom, Absalom! (Location) 164.00 view Sun, 2017-12-10 09:01 Fri, 2022-01-28 10:30
Absalom, Absalom! 251 4 1859-08-02 to 1859-08-31 New Orleans, Louisiana in Absalom, Absalom! (Location) 165.00 view Sun, 2017-12-10 09:05 Fri, 2022-01-28 10:31
Absalom, Absalom! 258 1 1910-01-14 Harvard University|Cambridge Area in Absalom, Absalom! (Location) 561.00 view Sun, 2017-12-10 09:57 Fri, 2022-01-28 10:32
Absalom, Absalom! 267 2 1860-12-24 Sutpen's Stable in Absalom, Absalom! (Location) 263.00 view Sun, 2017-12-10 13:57 Fri, 2022-01-28 10:32
Absalom, Absalom! 268 2 1910-01-14 Harvard University|Cambridge Area in Absalom, Absalom! (Location) 564.00 view Sun, 2017-12-10 14:14 Fri, 2022-01-28 10:33
Absalom, Absalom! 268 3 1861-01-01 to 1861-01-31 New Orleans, Louisiana in Absalom, Absalom! (Location) 279.50 view Sun, 2017-12-10 14:17 Fri, 2022-01-28 10:34
Absalom, Absalom! 268 5 1909-09-06 Compson Place in Absalom, Absalom! (Location) 501.50 view Mon, 2018-01-15 09:25 Fri, 2022-01-28 10:35
Absalom, Absalom! 148 1 1866-01-01 to 1866-12-31 Sutpen Plantation in Absalom, Absalom! (Location) 386.00 view Wed, 2017-12-06 08:09 Sat, 2022-01-29 08:42
Absalom, Absalom! 148 4 1867-01-01 to 1869-07-31 Fishing Camp|Hunting Camp in Absalom, Absalom! (Location) 408.20 view Sat, 2022-01-29 08:49 Sat, 2022-01-29 08:49
Absalom, Absalom! 148 2 1865-05-03 Sutpen Plantation in Absalom, Absalom! (Location) 374.60 view Sat, 2022-01-29 08:26 Sat, 2022-01-29 08:49
Absalom, Absalom! 148 3 1865-05-04 to 1865-12-31 Sutpen Plantation in Absalom, Absalom! (Location) 382.50 view Sat, 2022-01-29 08:31 Sat, 2022-01-29 08:50
Absalom, Absalom! 148 6 1867-01-01 to 1869-08-11 Fishing Camp|Hunting Camp in Absalom, Absalom! (Location) 410.10 view Sat, 2022-01-29 08:58 Sat, 2022-01-29 08:58
Absalom, Absalom! 144 4 1866-06-02 to 1868-12-12 Coldfield House in Absalom, Absalom! (Location) 399.20 view Wed, 2022-01-26 10:59 Sat, 2022-01-29 09:05
Absalom, Absalom! 148 7 1866-06-02 to 1868-12-31 Coldfield House in Absalom, Absalom! (Location) 399.30 view Sat, 2022-01-29 09:05 Sat, 2022-01-29 09:05
Absalom, Absalom! 148 8 1866-01-01 to 1869-08-11 Sutpen Plantation in Absalom, Absalom! (Location) 386.10 view Sat, 2022-01-29 09:12 Sat, 2022-01-29 09:25
Absalom, Absalom! 149 2 1867-01-01 to 1869-08-10 Sutpen's Store in Absalom, Absalom! (Location) 408.30 view Sat, 2022-01-29 09:30 Sat, 2022-01-29 09:30
Absalom, Absalom! 149 3 1852-01-01 to 1860-12-12 Sutpen Plantation in Absalom, Absalom! (Location) 140.00 view Wed, 2017-12-06 08:23 Sat, 2022-01-29 09:32
Absalom, Absalom! 149 4 1861-06-01 to 1865-12-31 Sutpen Plantation in Absalom, Absalom! (Location) 308.10 view Sat, 2022-01-29 09:38 Sat, 2022-01-29 10:07
Absalom, Absalom! 149 1 1852-01-01 to 1854-12-31 Fishing Camp|Hunting Camp in Absalom, Absalom! (Location) 139.10 view Wed, 2017-12-06 08:17 Sat, 2022-01-29 10:10
Absalom, Absalom! 149 5 1868-01-01 to 1869-03-31 Sutpen's Store in Absalom, Absalom! (Location) 405.00 view Sat, 2022-01-29 09:48 Sat, 2022-01-29 10:13
Absalom, Absalom! 149 6 1852-01-01 to 1860-12-31 Sutpen's Scuppernong Arbor in Absalom, Absalom! (Location) 139.20 view Wed, 2017-12-06 08:26 Sat, 2022-01-29 10:13
Absalom, Absalom! 149 7 1866-07-01 to 1868-12-31 Sutpen's Scuppernong Arbor in Absalom, Absalom! (Location) 405.10 view Wed, 2017-12-06 08:29 Sat, 2022-01-29 10:15
Absalom, Absalom! 150 1 1866-07-01 to 1868-12-31 Sutpen Plantation in Absalom, Absalom! (Location) 406.00 view Wed, 2017-12-06 08:57 Sat, 2022-01-29 10:17
Absalom, Absalom! 150 3 1910-01-13 Harvard University|Cambridge Area in Absalom, Absalom! (Location) 529.00 view Wed, 2017-12-06 09:05 Sat, 2022-01-29 10:21
Absalom, Absalom! 150 2 1861-06-01 to 1868-12-31 Sutpen Plantation in Absalom, Absalom! (Location) 307.00 view Wed, 2017-12-06 09:02 Sat, 2022-01-29 10:24
Absalom, Absalom! 150 4 1869-08-12 Sutpen Plantation in Absalom, Absalom! (Location) 413.00 view Wed, 2017-12-06 09:10 Sat, 2022-01-29 10:26
Absalom, Absalom! 150 5 1869-08-17 to 1869-08-20 Midwife|Dicey's Cabin in Absalom, Absalom! (Location) 427.00 view Wed, 2017-12-06 09:13 Sat, 2022-01-29 10:27
Absalom, Absalom! 151 1 1869-08-12 Fishing Camp|Hunting Camp in Absalom, Absalom! (Location) 414.50 view Wed, 2017-12-06 09:17 Sat, 2022-01-29 10:27
Absalom, Absalom! 151 2 1869-08-12 Sutpen Plantation in Absalom, Absalom! (Location) 421.00 view Wed, 2017-12-06 09:19 Sat, 2022-01-29 10:28
Absalom, Absalom! 151 4 1869-08-13 Northwest Road|Jefferson to Memphis in Absalom, Absalom! (Location) 422.00 view Wed, 2017-12-06 09:23 Sat, 2022-01-29 10:30
Absalom, Absalom! 151 3 1848-01-01 to 1848-12-31 Northwest Road|Jefferson to Memphis in Absalom, Absalom! (Location) 123.10 view Sat, 2022-01-29 10:35 Sat, 2022-01-29 10:35
Absalom, Absalom! 152 1 1869-08-13 Sutpen Graveyard in Absalom, Absalom! (Location) 423.00 view Wed, 2017-12-06 09:25 Sat, 2022-01-29 10:37
Absalom, Absalom! 152 2 1869-08-14 to 1869-12-31 Sutpen's Store in Absalom, Absalom! (Location) 425.00 view Wed, 2017-12-06 09:31 Sat, 2022-01-29 10:37
Absalom, Absalom! 152 3 1869-08-13 to 1960-12-31 Beyond|Heaven in Absalom, Absalom! (Location) 424.00 view Wed, 2017-12-06 09:34 Sat, 2022-01-29 10:37
Absalom, Absalom! 152 4 1869-08-14 to 1869-12-31 Sutpen's Store in Absalom, Absalom! (Location) 426.00 view Wed, 2017-12-06 09:37 Sat, 2022-01-29 10:38
Absalom, Absalom! 152 5 1870-01-01 to 1870-05-31 Sutpen's Store in Absalom, Absalom! (Location) 429.00 view Wed, 2017-12-06 09:39 Sat, 2022-01-29 10:38
Absalom, Absalom! 29 1 1833-09-01 to 1835-12-31 Jefferson General Compson's|Mr. Compson's Office in Absalom, Absalom! (Location) 61.30 view Fri, 2017-12-01 13:52 Sat, 2022-01-29 14:16
Absalom, Absalom! 26 5 1835-01-01 to 1835-12-31 Courthouse and Square in Absalom, Absalom! (Location) 61.90 view Mon, 2022-01-17 10:36 Sat, 2022-01-29 14:21
Absalom, Absalom! 203 5 1834-01-01 to 1855-12-31 Sutpen's Stable in Absalom, Absalom! (Location) 61.60 view Thu, 2022-01-20 09:48 Sat, 2022-01-29 14:22
Absalom, Absalom! 147 2 1866-07-01 to 1869-08-12 Sutpen's Store in Absalom, Absalom! (Location) 404.10 view Wed, 2022-01-26 15:00 Sat, 2022-01-29 14:29

Pages

Subscribe to Events